KANQ/ANQ METAR and TAF weather

Enter ICAO airport designator
Station Type Date Time Source
KANQ METAR 2018/12/12 16:15 UTC NOAA

KANQ 121615Z AUTO 14010KT 8SM BKN080 01/M02 A2987 RMK AO2 TSNO


Station Type Date Time Source
KANQ Decoded METAR 2018/12/12 16:15 UTC NOAA

Station name not available
Dec 12, 2018 - 11:15 AM EST / 2018.12.12 1615 UTC
Wind: from the SE (140 degrees) at 12 MPH (10 KT):0
Visibility: 8 mile(s):0
Sky conditions: mostly cloudy
Temperature: 33 F (1 C)
Windchill: 24 F (-4 C):1
Dew Point: 28 F (-2 C)
Relative Humidity: 80%
Pressure (altimeter): 29.87 in. Hg (1011 hPa)
ob: KANQ 121615Z AUTO 14010KT 8SM BKN080 01/M02 A2987 RMK AO2 TSNO
cycle: 16

Station Type Date Time Source
KANQ TAF UTC NOAA

Error!


Example: see airport list